Thompson Falls, MT (59873)

7:36 AM MDT on August 28, 2014 (GMT -0600)
RAWS THOMPSON FALLS A/P MT US | Change Station
CLOSE
Current Station
Personal Weather Station
Location: Thompson Falls, MT
Elevation: 2425 ft
Nearby Weather Stations

Elev 2425 ft 47.58 °N, 115.28 °W | Updated 34 minutes ago

Clear
Clear
52 °F
Feels Like 52 °F
N
2
Wind Variable Wind from NNW
Gusts 5.0 mph

Today
High -- | Low -- °F
--% Chance of Precip.
Yesterday
High -- | Low -- °F
Precip. -- in
6:54 AM 8:29 PM
Waxing Crescent, 8% visible
Pressure 29.98 in
Visibility 10.0 miles
Clouds Clear
Dew Point 49 °F
Humidity 88%
Rainfall 0.00 in
Snow Depth Not available.
UV 0 out of 12
Pollen 3.70 out of 12
Air Quality Not available.
Flu Activity Not available.
METAR KCOE 281315Z AUTO 19007KT 10SM CLR 17/10 A2998 RMK AO1

More Conditions Fewer Conditions

Pressure 29.98 in
Visibility 10.0 miles
Clouds Clear
Dew Point 49 °F
Humidity 88%
Rainfall 0.00 in
Snow Depth Not available.
UV 0 out of 12
Pollen 3.70 out of 12
Air Quality Not available.
Flu Activity Not available.
METAR KCOE 281315Z AUTO 19007KT 10SM CLR 17/10 A2998 RMK AO1

More Conditions Fewer Conditions

10-Day Weather Forecast

Almanac

Astronomy

Aug. 28, 2014 Rise Set
Actual Time 6:54 AM MDT 8:29 PM MDT
Civil Twilight 6:22 AM MDT 9:01 PM MDT
Nautical Twilight 5:42 AM MDT 9:40 PM MDT
Astronomical Twilight 5:00 AM MDT 10:23 PM MDT
Moon 10:06 AM MDT 9:38 PM MDT
Length of Visible Light 14h 39m
Length of Day
13h 34m
Tomorrow will be 3m 18s shorter.
Waxing Crescent, 8% of the Moon is Illuminated
Today
Waxing Crescent
Sep 2
First Quarter
Sep 8
Full
Sep 15
Last Quarter
Sep 24
New

Today's Extremes

State Highs State Lows

Community

WunderPhotos

Upload Photos

1,747,947 photos uploaded!

Nearby

Snow Depth

Station Depth Elevation
Hand Creek 0 in 5035 ft
Moss Peak 0 in 6780 ft
Kraft Creek 0 in 4750 ft
Stuart Mountain 0 in 7400 ft
Emery Creek 0 in 4350 ft

Earthquake Activity

City Distance Mag. Time & Date
No recent earthquake activity has been reported nearby.
Minimum magnitude displayed is 2.5.

Coastal Water Temperatures

Place Temperature
No Stations Reporting

Nearby Weather Stations